Silver Rotterdam — 3EWL6 — position and weather

sailwx.info

Track history (hours):
 
Tides and Currents Weather Stations Pressure Air Temp Water Temp Dewpoint Dewpoint Depression Visibility Wind Speed Wind Dir Waves Ship Positions

Silver Rotterdam

Last reported at 2018-Jun-13 06:31 UTC. Time now 2018-Jun-20 16:57 UTC.
Position N 22°21' E 119°52'.

Length 183 m; draft 12.2 m.

Type: Tanker. MMSI: 372269000.

Date/timePositionNaut miles runAvg speedWind from/ knotsBaromVisibWave heightAir tempDewpointWater temp
2018-Jun-13 06:31N 22°21' E 119°52'213.7
2018-Jun-13 06:22N 22°23' E 119°52'513.7
2018-Jun-13 06:00N 22°28' E 119°52'713.5
2018-Jun-13 05:30N 22°35' E 119°53'612.6
2018-Jun-13 05:00N 22°41' E 119°53'713.5
2018-Jun-13 04:30N 22°48' E 119°53'61 1.6
2018-Jun-11 14:15N 23°47' E 120°10'0 0.0
2018-Jun-11 13:39N 23°47' E 120°10'0 0.0
2018-Jun-11 13:27N 23°47' E 120°10'0 0.0
2018-Jun-11 12:57N 23°47' E 120°10'0 0.0
2018-Jun-11 12:27N 23°47' E 120°10'  
Track history (hours):
 
Tides and Currents Weather Stations Pressure Air Temp Water Temp Dewpoint Dewpoint Depression Visibility Wind Speed Wind Dir Waves Ship Positions

Silver Rotterdam

Last reported at 2018-Jun-13 06:31 UTC. Time now 2018-Jun-20 16:57 UTC.
Position N 22°21' E 119°52'.

Length 183 m; draft 12.2 m.

Type: Tanker. MMSI: 372269000.

Date/timePositionNaut miles runAvg speedWind from/ knotsBaromVisibWave heightAir tempDewpointWater temp
2018-Jun-13 06:31N 22°21' E 119°52'213.7
2018-Jun-13 06:22N 22°23' E 119°52'513.7
2018-Jun-13 06:00N 22°28' E 119°52'713.5
2018-Jun-13 05:30N 22°35' E 119°53'612.6
2018-Jun-13 05:00N 22°41' E 119°53'713.5
2018-Jun-13 04:30N 22°48' E 119°53'61 1.6
2018-Jun-11 14:15N 23°47' E 120°10'0 0.0
2018-Jun-11 13:39N 23°47' E 120°10'0 0.0
2018-Jun-11 13:27N 23°47' E 120°10'0 0.0
2018-Jun-11 12:57N 23°47' E 120°10'0 0.0
2018-Jun-11 12:27N 23°47' E 120°10'  

Dump ship's entire track history